Airfield :
LOGIN :

Register | Disclaimer

   EN    FR    IT 

 










Legend :    VFR   Marginal VFR   IFR   Intensive IFR   Very Intensive IFR
Visi :
Ceiling :
>= 8 km
>= 3000ft
5 to 8 km
1000 to 3000 ft
1500m to 5 km
500 to 1000 ft
800 to 1500m
200 to 500 ft
< 800m
< 200 ft
Symbols :   Thunderstorms  Fog  Heavy snow  Heavy precipitations  Wind > 20 kt
SIGMETs :     Misc.  Thunderstorms  Icing  Turbulence  Mountain Waves  Volcanic Ashes






- Airport Elevation : 665 ft
- IATA code : NOC


EIKN - Connaught / Knock- Ireland West

METAR N/A
TAF TAF EIKN
Valid from the 26 at 00:00 until the 27 at 00:00 UTC


252300Z 2600/2624 18016G27KT 3000 -RADZ BKN003
TEMPO 2600/2601 0400 FG BKN001
BECMG 2601/2603 21013KT 9999 NSW FEW012 BKN020
TEMPO 2603/2616 5000 -SHRA BKN012 SCT018CB
BECMG 2604/2606 25012KT
PROB40
TEMPO 2609/2613 3000 -SHRASN BKN006
BECMG 2613/2615 21010KT
BECMG 2616/2618 17012KT
BECMG 2618/2620 16016G26KT
TEMPO 2620/2622 3000 SHRASN BKN004 SCT017CB
BECMG 2621/2623 19013KT



MET'MAP, your aeronautical weather chart ! - Copyright ORBIFLY December 2007 - Disclaimer

ORBIFLY MET'MAP TEAM :

Programming & Development : Alexandra Zaïnal
Concept & original design : Baudouin d'Aumeries
Assistance for programming : Marc-Olivier Méhu
Technical & hardware support : Manuel Goepfert

Contact : metmap@orbifly.com




SOURCES & CREDITS :

   NOAA